createdAt,value
2016-11-29T00:01:24.945Z,1034.364
2016-11-29T00:04:18.935Z,1034.397
2016-11-29T00:07:12.848Z,1034.336
2016-11-29T00:10:06.845Z,1034.367
2016-11-29T00:13:00.760Z,1034.405
2016-11-29T00:15:54.654Z,1034.412
2016-11-29T00:18:48.550Z,1034.416
2016-11-29T00:21:42.534Z,1034.434
2016-11-29T00:24:36.414Z,1034.342
2016-11-29T00:27:30.380Z,1034.371
2016-11-29T00:30:24.216Z,1034.460
2016-11-29T00:33:18.081Z,1034.536
2016-11-29T00:39:06.164Z,1034.588
2016-11-29T00:44:54.006Z,1034.562
2016-11-29T00:47:48.034Z,1034.616
2016-11-29T00:50:41.974Z,1034.603
2016-11-29T00:53:36.012Z,1034.579
2016-11-29T00:56:29.928Z,1034.599
2016-11-29T00:59:24.729Z,1034.563
2016-11-29T01:02:17.955Z,1034.553
2016-11-29T01:08:06.034Z,1034.528
2016-11-29T01:11:00.018Z,1034.442
2016-11-29T01:13:54.119Z,1034.416
2016-11-29T01:16:48.072Z,1034.428
2016-11-29T01:19:42.085Z,1034.439
2016-11-29T01:22:36.008Z,1034.388
2016-11-29T01:28:24.126Z,1034.270
2016-11-29T01:31:18.078Z,1034.236
2016-11-29T01:34:12.058Z,1034.170
2016-11-29T01:37:06.132Z,1034.176
2016-11-29T01:40:00.079Z,1034.214
2016-11-29T01:42:54.198Z,1034.315
2016-11-29T01:45:48.149Z,1034.331
2016-11-29T01:48:42.171Z,1034.297
2016-11-29T01:51:36.253Z,1034.327
2016-11-29T01:54:30.301Z,1034.329
2016-11-29T02:00:18.408Z,1034.321
2016-11-29T02:06:06.357Z,1034.288
2016-11-29T02:09:00.312Z,1034.245
2016-11-29T02:11:54.314Z,1034.263
2016-11-29T02:14:48.329Z,1034.277
2016-11-29T02:17:42.597Z,1034.281
2016-11-29T02:20:36.615Z,1034.242
2016-11-29T02:26:24.435Z,1034.085
2016-11-29T02:29:18.534Z,1034.076
2016-11-29T02:35:06.591Z,1034.052
2016-11-29T02:40:54.630Z,1034.149
2016-11-29T02:43:48.668Z,1034.126
2016-11-29T02:46:42.708Z,1034.124
2016-11-29T02:49:36.571Z,1034.157
2016-11-29T02:52:30.600Z,1034.182
2016-11-29T02:58:18.647Z,1034.191
2016-11-29T03:01:12.616Z,1034.101
2016-11-29T03:04:06.639Z,1034.103
2016-11-29T03:07:00.585Z,1034.138
2016-11-29T03:12:48.429Z,1034.168
2016-11-29T03:15:42.452Z,1034.165
2016-11-29T03:18:36.442Z,1034.165
2016-11-29T03:21:30.324Z,1034.141
2016-11-29T03:24:24.298Z,1034.178
2016-11-29T03:27:18.369Z,1034.166
2016-11-29T03:30:12.293Z,1034.139
2016-11-29T03:33:06.185Z,1034.192
2016-11-29T03:38:54.145Z,1034.180
2016-11-29T03:41:48.181Z,1034.150
2016-11-29T03:47:36.151Z,1034.072
2016-11-29T03:53:23.936Z,1034.067
2016-11-29T03:56:17.953Z,1034.060
2016-11-29T03:59:12.050Z,1034.088
2016-11-29T04:02:05.989Z,1034.147
2016-11-29T04:05:00.008Z,1034.166
2016-11-29T04:07:53.921Z,1034.155
2016-11-29T04:10:47.901Z,1034.166
2016-11-29T04:13:41.836Z,1034.201
2016-11-29T04:16:35.852Z,1034.207
2016-11-29T04:19:29.707Z,1034.184
2016-11-29T04:25:18.263Z,1034.236
2016-11-29T04:28:12.268Z,1034.231
2016-11-29T04:31:06.244Z,1034.208
2016-11-29T04:34:00.231Z,1034.245
2016-11-29T04:36:54.175Z,1034.286
2016-11-29T04:39:48.143Z,1034.270
2016-11-29T04:42:42.220Z,1034.286
2016-11-29T04:45:37.167Z,1034.297
2016-11-29T04:48:30.039Z,1034.336
2016-11-29T04:51:23.947Z,1034.351
2016-11-29T04:54:17.855Z,1034.380
2016-11-29T05:00:05.864Z,1034.394
2016-11-29T05:02:59.763Z,1034.350
2016-11-29T05:05:53.700Z,1034.345
2016-11-29T05:08:47.667Z,1034.354
2016-11-29T05:11:41.636Z,1034.318
2016-11-29T05:14:35.502Z,1034.371
2016-11-29T05:17:29.413Z,1034.416
2016-11-29T05:20:23.322Z,1034.376
2016-11-29T05:23:17.365Z,1034.354
2016-11-29T05:26:11.382Z,1034.394
2016-11-29T05:29:05.412Z,1034.384
2016-11-29T05:31:59.374Z,1034.382
2016-11-29T05:34:53.274Z,1034.343
2016-11-29T05:37:47.223Z,1034.334
2016-11-29T05:46:30.089Z,1034.301
2016-11-29T05:49:23.033Z,1034.303
2016-11-29T05:55:10.770Z,1034.314
2016-11-29T05:58:05.197Z,1034.325
2016-11-29T06:00:59.161Z,1034.322
2016-11-29T06:03:53.442Z,1034.303
2016-11-29T06:12:35.287Z,1034.373
2016-11-29T06:15:29.131Z,1034.333
2016-11-29T06:18:23.203Z,1034.374
2016-11-29T06:21:17.141Z,1034.392
2016-11-29T06:24:11.581Z,1034.419
2016-11-29T06:27:05.501Z,1034.388
2016-11-29T06:32:53.502Z,1034.418
2016-11-29T06:35:47.392Z,1034.430
2016-11-29T06:38:41.382Z,1034.405
2016-11-29T06:41:35.392Z,1034.428
2016-11-29T06:44:29.348Z,1034.507
2016-11-29T06:50:17.376Z,1034.556
2016-11-29T06:53:11.497Z,1034.539
2016-11-29T06:56:05.473Z,1034.568
2016-11-29T06:58:59.533Z,1034.583
2016-11-29T07:04:47.488Z,1034.629
2016-11-29T07:07:41.561Z,1034.654
2016-11-29T07:10:35.648Z,1034.640
2016-11-29T07:13:29.597Z,1034.640
2016-11-29T07:16:23.985Z,1034.638
2016-11-29T07:19:17.971Z,1034.640
2016-11-29T07:22:11.950Z,1034.680
2016-11-29T07:27:59.880Z,1034.718
2016-11-29T07:30:53.911Z,1034.699
2016-11-29T07:33:47.870Z,1034.669
2016-11-29T07:36:42.010Z,1034.676
2016-11-29T07:39:35.973Z,1034.678
2016-11-29T07:42:29.942Z,1034.686
2016-11-29T07:45:24.033Z,1034.717
2016-11-29T07:48:18.653Z,1034.760
2016-11-29T07:51:12.522Z,1034.777
2016-11-29T07:54:06.675Z,1034.801
2016-11-29T07:57:00.757Z,1034.789
2016-11-29T08:02:49.123Z,1034.790
2016-11-29T08:05:43.339Z,1034.771
2016-11-29T08:08:37.572Z,1034.715
2016-11-29T08:11:32.164Z,1034.740
2016-11-29T08:14:27.443Z,1034.723
2016-11-29T08:17:21.419Z,1034.711
2016-11-29T08:20:15.778Z,1034.709
2016-11-29T08:23:10.094Z,1034.690
2016-11-29T08:26:04.360Z,1034.736
2016-11-29T08:28:58.729Z,1034.709
2016-11-29T08:31:53.042Z,1034.691
2016-11-29T08:34:47.415Z,1034.738
2016-11-29T08:37:41.756Z,1034.749
2016-11-29T08:40:36.056Z,1034.749
2016-11-29T08:43:30.390Z,1034.780
2016-11-29T08:46:24.714Z,1034.753
2016-11-29T08:49:19.012Z,1034.711
2016-11-29T08:52:13.394Z,1034.707
2016-11-29T08:55:07.714Z,1034.738
2016-11-29T09:00:57.106Z,1034.726
2016-11-29T09:03:51.410Z,1034.703
2016-11-29T09:06:45.779Z,1034.681
2016-11-29T09:09:40.171Z,1034.746
2016-11-29T09:12:34.535Z,1034.722
2016-11-29T09:15:28.949Z,1034.711
2016-11-29T09:18:23.374Z,1034.685
2016-11-29T09:21:17.750Z,1034.649
2016-11-29T09:24:12.097Z,1034.730
2016-11-29T09:27:06.391Z,1034.694
2016-11-29T09:30:00.780Z,1034.694
2016-11-29T09:32:55.214Z,1034.659
2016-11-29T09:35:49.642Z,1034.658
2016-11-29T09:38:44.001Z,1034.705
2016-11-29T09:41:38.376Z,1034.647
2016-11-29T09:44:32.926Z,1034.685
2016-11-29T09:47:27.402Z,1034.676
2016-11-29T09:50:21.791Z,1034.710
2016-11-29T09:53:16.221Z,1034.713
2016-11-29T09:56:10.650Z,1034.679
2016-11-29T09:59:05.065Z,1034.649
2016-11-29T10:01:59.419Z,1034.610
2016-11-29T10:04:53.752Z,1034.629
2016-11-29T10:07:48.102Z,1034.637
2016-11-29T10:10:42.580Z,1034.613
2016-11-29T10:13:36.877Z,1034.574
2016-11-29T10:16:31.154Z,1034.545
2016-11-29T10:19:25.558Z,1034.562
2016-11-29T10:22:19.866Z,1034.585
2016-11-29T10:25:14.181Z,1034.585
2016-11-29T10:28:08.492Z,1034.612
2016-11-29T10:31:02.879Z,1034.493
2016-11-29T10:33:57.163Z,1034.508
2016-11-29T10:36:51.959Z,1034.446
2016-11-29T10:39:46.333Z,1034.409
2016-11-29T10:42:40.970Z,1034.430
2016-11-29T10:45:35.091Z,1034.376
2016-11-29T10:51:24.098Z,1034.348
2016-11-29T10:54:18.498Z,1034.367
2016-11-29T10:57:12.653Z,1034.303
2016-11-29T11:00:06.965Z,1034.289
2016-11-29T11:03:01.230Z,1034.261
2016-11-29T11:05:55.459Z,1034.318
2016-11-29T11:08:49.569Z,1034.323
2016-11-29T11:11:43.894Z,1034.298
2016-11-29T11:14:38.564Z,1034.263
2016-11-29T11:17:32.785Z,1034.268
2016-11-29T11:20:27.062Z,1034.252
2016-11-29T11:26:15.354Z,1034.310
2016-11-29T11:29:09.629Z,1034.226
2016-11-29T11:32:03.804Z,1034.207
2016-11-29T11:34:58.092Z,1034.180
2016-11-29T11:37:52.342Z,1034.162
2016-11-29T11:40:46.597Z,1034.085
2016-11-29T11:43:40.991Z,1034.092
2016-11-29T11:46:35.263Z,1034.039
2016-11-29T11:49:29.516Z,1034.011
2016-11-29T11:52:23.802Z,1034.010
2016-11-29T11:55:17.931Z,1034.035
2016-11-29T11:58:12.276Z,1034.035
2016-11-29T12:01:06.651Z,1033.986
2016-11-29T12:04:00.923Z,1034.038
2016-11-29T12:06:55.100Z,1034.005
2016-11-29T12:09:49.368Z,1033.996
2016-11-29T12:15:38.102Z,1033.988
2016-11-29T12:18:32.287Z,1033.962
2016-11-29T12:21:26.668Z,1033.926
2016-11-29T12:27:15.128Z,1033.852
2016-11-29T12:30:09.329Z,1033.888
2016-11-29T12:33:03.562Z,1033.911
2016-11-29T12:35:57.924Z,1033.875
2016-11-29T12:38:52.114Z,1033.885
2016-11-29T12:41:46.286Z,1033.827
2016-11-29T12:44:40.521Z,1033.821
2016-11-29T12:47:34.738Z,1033.832
2016-11-29T12:50:28.918Z,1033.827
2016-11-29T12:56:17.300Z,1033.843
2016-11-29T12:59:11.632Z,1033.821
2016-11-29T13:02:05.830Z,1033.799
2016-11-29T13:05:00.096Z,1033.803
2016-11-29T13:07:54.292Z,1033.857
2016-11-29T13:10:48.528Z,1033.834
2016-11-29T13:13:42.854Z,1033.875
2016-11-29T13:16:37.122Z,1033.815
2016-11-29T13:19:31.409Z,1033.844
2016-11-29T13:22:25.766Z,1033.844
2016-11-29T13:25:20.953Z,1033.834
2016-11-29T13:31:08.783Z,1033.853
2016-11-29T13:36:57.304Z,1033.842
2016-11-29T13:39:51.606Z,1033.872
2016-11-29T13:42:45.823Z,1033.815
2016-11-29T13:45:40.031Z,1033.800
2016-11-29T13:48:35.335Z,1033.806
2016-11-29T13:51:28.647Z,1033.778
2016-11-29T13:54:23.408Z,1033.750
2016-11-29T13:57:17.627Z,1033.747
2016-11-29T14:00:11.937Z,1033.753
2016-11-29T14:03:06.410Z,1033.768
2016-11-29T14:06:00.579Z,1033.787
2016-11-29T14:08:54.831Z,1033.819
2016-11-29T14:11:49.122Z,1033.878
2016-11-29T14:14:43.373Z,1033.862
2016-11-29T14:20:31.943Z,1033.924
2016-11-29T14:23:26.261Z,1033.944
2016-11-29T14:26:20.522Z,1033.949
2016-11-29T14:29:15.624Z,1033.932
2016-11-29T14:32:08.861Z,1033.914
2016-11-29T14:35:03.025Z,1033.940
2016-11-29T14:37:57.309Z,1033.888
2016-11-29T14:40:51.520Z,1033.880
2016-11-29T14:43:45.708Z,1033.896
2016-11-29T14:46:39.950Z,1033.915
2016-11-29T14:49:34.220Z,1033.946
2016-11-29T14:52:28.391Z,1033.962
2016-11-29T14:55:22.663Z,1034.018
2016-11-29T14:58:16.785Z,1034.016
2016-11-29T15:01:11.020Z,1033.999
2016-11-29T15:04:05.143Z,1033.985
2016-11-29T15:06:59.281Z,1034.002
2016-11-29T15:09:53.508Z,1033.986
2016-11-29T15:12:47.697Z,1033.958
2016-11-29T15:18:35.956Z,1033.917
2016-11-29T15:21:30.133Z,1033.887
2016-11-29T15:24:24.285Z,1033.917
2016-11-29T15:27:18.324Z,1033.870
2016-11-29T15:30:12.461Z,1033.860
2016-11-29T15:33:06.678Z,1033.903
2016-11-29T15:36:00.721Z,1033.854
2016-11-29T15:38:54.802Z,1033.835
2016-11-29T15:41:48.945Z,1033.845
2016-11-29T15:44:43.088Z,1033.837
2016-11-29T15:47:37.223Z,1033.823
2016-11-29T15:50:32.238Z,1033.832
2016-11-29T15:53:25.434Z,1033.794
2016-11-29T15:59:13.751Z,1033.757
2016-11-29T16:02:07.891Z,1033.753
2016-11-29T16:05:01.967Z,1033.714
2016-11-29T16:07:56.099Z,1033.696
2016-11-29T16:10:51.285Z,1033.668
2016-11-29T16:13:44.298Z,1033.659
2016-11-29T16:16:38.357Z,1033.642
2016-11-29T16:19:32.464Z,1033.639
2016-11-29T16:22:26.601Z,1033.626
2016-11-29T16:25:21.251Z,1033.605
2016-11-29T16:28:15.320Z,1033.606
2016-11-29T16:31:09.361Z,1033.653
2016-11-29T16:36:58.666Z,1033.635
2016-11-29T16:39:51.780Z,1033.638
2016-11-29T16:42:45.878Z,1033.611
2016-11-29T16:45:39.869Z,1033.608
2016-11-29T16:51:28.076Z,1033.607
2016-11-29T16:54:22.233Z,1033.655
2016-11-29T16:57:16.469Z,1033.605
2016-11-29T17:00:10.581Z,1033.644
2016-11-29T17:03:04.628Z,1033.718
2016-11-29T17:05:58.767Z,1033.764
2016-11-29T17:08:52.908Z,1033.793
2016-11-29T17:11:47.041Z,1033.804
2016-11-29T17:17:35.316Z,1033.702
2016-11-29T17:20:29.571Z,1033.639
2016-11-29T17:23:23.627Z,1033.658
2016-11-29T17:29:11.757Z,1033.608
2016-11-29T17:32:05.892Z,1033.634
2016-11-29T17:35:00.021Z,1033.617
2016-11-29T17:37:54.086Z,1033.601
2016-11-29T17:43:42.406Z,1033.556
2016-11-29T17:46:36.480Z,1033.534
2016-11-29T17:49:30.647Z,1033.550
2016-11-29T17:55:18.927Z,1033.552
2016-11-29T17:58:12.940Z,1033.568
2016-11-29T18:01:07.090Z,1033.577
2016-11-29T18:04:01.222Z,1033.530
2016-11-29T18:06:55.367Z,1033.508
2016-11-29T18:12:43.667Z,1033.463
2016-11-29T18:15:37.707Z,1033.428
2016-11-29T18:18:31.933Z,1033.432
2016-11-29T18:21:26.058Z,1033.430
2016-11-29T18:27:14.070Z,1033.437
2016-11-29T18:30:08.121Z,1033.458
2016-11-29T18:33:02.272Z,1033.414
2016-11-29T18:35:56.359Z,1033.402
2016-11-29T18:38:50.480Z,1033.384
2016-11-29T18:41:44.499Z,1033.345
2016-11-29T18:44:38.613Z,1033.342
2016-11-29T18:47:33.077Z,1033.340
2016-11-29T18:50:27.071Z,1033.349
2016-11-29T18:53:21.135Z,1033.285
2016-11-29T18:56:15.228Z,1033.311
2016-11-29T18:59:09.192Z,1033.278
2016-11-29T19:02:03.245Z,1033.284
2016-11-29T19:07:51.398Z,1033.312
2016-11-29T19:10:45.478Z,1033.236
2016-11-29T19:13:39.475Z,1033.235
2016-11-29T19:16:33.614Z,1033.261
2016-11-29T19:19:27.633Z,1033.237
2016-11-29T19:25:15.697Z,1033.228
2016-11-29T19:28:09.749Z,1033.241
2016-11-29T19:31:03.750Z,1033.196
2016-11-29T19:33:57.788Z,1033.184
2016-11-29T19:36:51.824Z,1033.239
2016-11-29T19:39:45.879Z,1033.212
2016-11-29T19:42:40.015Z,1033.206
2016-11-29T19:45:33.972Z,1033.169
2016-11-29T19:48:28.040Z,1033.132
2016-11-29T19:54:16.083Z,1033.115
2016-11-29T19:57:10.103Z,1033.114
2016-11-29T20:00:04.092Z,1033.091
2016-11-29T20:02:58.090Z,1033.054
2016-11-29T20:05:52.129Z,1032.979
2016-11-29T20:08:46.153Z,1032.995
2016-11-29T20:11:40.059Z,1033.038
2016-11-29T20:14:34.053Z,1033.073
2016-11-29T20:23:16.064Z,1032.964
2016-11-29T20:31:57.936Z,1032.937
2016-11-29T20:34:51.922Z,1032.870
2016-11-29T20:37:46.017Z,1032.849
2016-11-29T20:40:40.173Z,1032.830
2016-11-29T20:43:34.282Z,1032.827
2016-11-29T20:46:28.355Z,1032.838
2016-11-29T20:49:22.411Z,1032.745
2016-11-29T20:52:16.404Z,1032.721
2016-11-29T20:55:10.461Z,1032.730
2016-11-29T20:58:05.456Z,1032.739
2016-11-29T21:00:58.580Z,1032.730
2016-11-29T21:03:52.522Z,1032.723
2016-11-29T21:06:46.603Z,1032.643
2016-11-29T21:09:40.622Z,1032.616
2016-11-29T21:12:34.616Z,1032.623
2016-11-29T21:15:28.674Z,1032.601
2016-11-29T21:18:22.644Z,1032.575
2016-11-29T21:21:16.737Z,1032.587
2016-11-29T21:24:10.691Z,1032.621
2016-11-29T21:27:04.699Z,1032.630
2016-11-29T21:29:58.721Z,1032.655
2016-11-29T21:32:52.665Z,1032.621
2016-11-29T21:38:40.838Z,1032.629
2016-11-29T21:44:28.936Z,1032.647
2016-11-29T21:47:23.003Z,1032.611
2016-11-29T21:50:17.147Z,1032.549
2016-11-29T21:53:11.185Z,1032.495
2016-11-29T21:58:59.757Z,1032.494
2016-11-29T22:01:53.759Z,1032.511
2016-11-29T22:04:47.834Z,1032.462
2016-11-29T22:07:41.918Z,1032.420
2016-11-29T22:10:35.898Z,1032.443
2016-11-29T22:13:29.846Z,1032.438
2016-11-29T22:16:23.767Z,1032.465
2016-11-29T22:19:17.952Z,1032.392
2016-11-29T22:22:11.989Z,1032.322
2016-11-29T22:25:06.094Z,1032.322
2016-11-29T22:28:00.056Z,1032.251
2016-11-29T22:30:54.126Z,1032.283
2016-11-29T22:33:48.135Z,1032.297
2016-11-29T22:36:42.149Z,1032.163
2016-11-29T22:39:36.154Z,1032.040
2016-11-29T22:42:30.049Z,1031.945
2016-11-29T22:45:24.093Z,1031.984
2016-11-29T22:48:18.079Z,1031.887
2016-11-29T22:51:12.141Z,1031.847
2016-11-29T22:54:06.255Z,1031.869
2016-11-29T22:57:00.265Z,1031.752
2016-11-29T22:59:54.489Z,1031.702
2016-11-29T23:02:48.520Z,1031.694
2016-11-29T23:05:42.437Z,1031.723
2016-11-29T23:08:36.501Z,1031.585
2016-11-29T23:11:31.436Z,1031.568
2016-11-29T23:14:24.649Z,1031.599
2016-11-29T23:17:18.626Z,1031.570
2016-11-29T23:20:12.657Z,1031.685
2016-11-29T23:23:06.731Z,1031.661
2016-11-29T23:26:00.768Z,1031.481
2016-11-29T23:28:54.724Z,1031.356
2016-11-29T23:31:48.802Z,1031.131
2016-11-29T23:37:37.030Z,1031.082
2016-11-29T23:40:31.020Z,1030.863
2016-11-29T23:43:25.051Z,1030.803
2016-11-29T23:46:19.066Z,1030.798
2016-11-29T23:49:13.045Z,1030.950
2016-11-29T23:52:06.986Z,1030.893
2016-11-29T23:55:01.071Z,1030.845
2016-11-29T23:57:55.009Z,1030.675
